Terminal Aerodrome Forecast
Issued by NWS

Home | Current Version | Previous Version | Text Only | Print | Product List | Glossary On
Versions: 1 2 3 4 5 6 7 8 9 10 11 12 13 14 15 16 17 18 19 20 21 22 23 24 25 26 27 28 29 30 31 32 33 34 35 36 37 38 39 40
000
FTUS43 KMKX 152342
TAFENW
TAF
KENW 152342Z 1600/1624 15010KT P6SM BKN060
     FM160200 VRB03KT P6SM FEW060
     FM160800 15007KT P6SM BKN100
     FM161500 16015G23KT P6SM SCT120 BKN200
     FM161900 17021G34KT P6SM SCT150 BKN250=

USA.gov is the U.S. government's official web portal to all federal, state and local government web resources and services.